Time;durP1;ratioP1;P1;durP2;ratioP2;P2;SDS_P1;SDS_P2;PMS_P1;PMS_P2;Temp;Humidity;BMP_temperature;BMP_pressure;BME280_temperature;BME280_humidity;BME280_pressure;Samples;Min_cycle;Max_cycle;Signal;HPM_P1;HPM_P2
2023/05/28 00:00:21;;;;;;;;;;;12.20;99.90;;;;;;5133318;27;19951;-67
2023/05/28 00:02:47;;;;;;;;;;;12.20;99.90;;;;;;5134592;27;19923;-68
2023/05/28 00:05:13;;;;;;;;;;;12.20;99.90;;;;;;5134317;27;20257;-67
2023/05/28 00:07:39;;;;;;;;;;;12.20;99.90;;;;;;5132977;27;19923;-67
2023/05/28 00:10:05;;;;;;;;;;;12.20;99.90;;;;;;5134341;27;19924;-67
2023/05/28 00:12:30;;;;;;;;;;;12.10;99.90;;;;;;5150274;27;20407;-67
2023/05/28 00:14:56;;;;;;;;;;;12.10;99.90;;;;;;5134489;27;20018;-68
2023/05/28 00:17:22;;;;;;;;;;;12.10;99.90;;;;;;5116039;27;19924;-68
2023/05/28 00:19:47;;;;;;;;;;;12.10;99.90;;;;;;5134339;27;20424;-67
2023/05/28 00:22:13;;;;;;;;;;;12.10;99.90;;;;;;5133202;27;19923;-68
2023/05/28 00:24:38;;;;;;;;;;;12.00;99.90;;;;;;5132671;27;19978;-68
2023/05/28 00:27:04;;;;;;;;;;;12.10;99.90;;;;;;5133733;27;19923;-68
2023/05/28 00:29:30;;;;;;;;;;;12.10;99.90;;;;;;5132837;27;19927;-67
2023/05/28 00:31:56;;;;;;;;;;;12.10;99.90;;;;;;5134030;27;19923;-68
2023/05/28 00:34:22;;;;;;;;;;;12.10;99.90;;;;;;5150001;27;19966;-72
2023/05/28 00:36:47;;;;;;;;;;;12.10;99.90;;;;;;5132454;27;19923;-68
2023/05/28 00:39:19;;;;;;;;;;;12.20;99.90;;;;;;5115714;27;20428;-68
2023/05/28 00:41:45;;;;;;;;;;;12.20;99.90;;;;;;5133459;27;19923;-68
2023/05/28 00:44:11;;;;;;;;;;;12.20;99.90;;;;;;5115202;27;19923;-67
2023/05/28 00:46:37;;;;;;;;;;;12.30;99.90;;;;;;5132383;27;19927;-68
2023/05/28 00:49:02;;;;;;;;;;;12.20;99.90;;;;;;5133674;27;19924;-68
2023/05/28 00:51:28;;;;;;;;;;;12.30;99.90;;;;;;5132348;27;20455;-68
2023/05/28 00:53:54;;;;;;;;;;;12.20;99.90;;;;;;5133584;27;19930;-67
2023/05/28 00:56:22;;;;;;;;;;;12.30;99.90;;;;;;5132202;27;20044;-68
2023/05/28 00:58:48;;;;;;;;;;;12.20;99.90;;;;;;5131864;27;19927;-72
2023/05/28 01:01:14;;;;;;;;;;;12.20;99.90;;;;;;5133151;27;19923;-68
2023/05/28 01:03:39;;;;;;;;;;;12.20;99.90;;;;;;5133019;27;20452;-68
2023/05/28 01:06:07;;;;;;;;;;;12.20;99.90;;;;;;5132041;27;20380;-69
2023/05/28 01:08:33;;;;;;;;;;;12.20;99.90;;;;;;5131987;27;19923;-68
2023/05/28 01:10:59;;;;;;;;;;;12.10;99.90;;;;;;5133436;27;19924;-68
2023/05/28 01:13:24;;;;;;;;;;;12.10;99.90;;;;;;5149577;27;19924;-68
2023/05/28 01:15:50;;;;;;;;;;;12.10;99.90;;;;;;5132897;27;19934;-68
2023/05/28 01:18:16;;;;;;;;;;;12.10;99.90;;;;;;5133379;27;19927;-68
2023/05/28 01:20:41;;;;;;;;;;;12.10;99.90;;;;;;5131555;27;19968;-68
2023/05/28 01:23:11;;;;;;;;;;;12.00;99.90;;;;;;5115011;27;19923;-68
2023/05/28 01:25:39;;;;;;;;;;;12.00;99.90;;;;;;5131377;27;20372;-67
2023/05/28 01:28:12;;;;;;;;;;;12.00;99.90;;;;;;5114925;27;19924;-67
2023/05/28 01:30:38;;;;;;;;;;;12.00;99.90;;;;;;5131752;27;19924;-67
2023/05/28 01:33:05;;;;;;;;;;;12.00;99.90;;;;;;5131835;27;19942;-67
2023/05/28 01:35:30;;;;;;;;;;;12.00;99.90;;;;;;5131200;27;19969;-71
2023/05/28 01:37:58;;;;;;;;;;;12.00;99.90;;;;;;5131836;28;20113;-68
2023/05/28 01:40:24;;;;;;;;;;;12.00;99.90;;;;;;5137900;27;19945;-67
2023/05/28 01:42:51;;;;;;;;;;;12.00;99.90;;;;;;5138968;27;20418;-67
2023/05/28 01:45:17;;;;;;;;;;;12.00;99.90;;;;;;5138903;27;20258;-67
2023/05/28 01:47:43;;;;;;;;;;;12.00;99.90;;;;;;5121353;27;19924;-67
2023/05/28 01:50:09;;;;;;;;;;;12.00;99.90;;;;;;5138192;27;19948;-69
2023/05/28 01:52:35;;;;;;;;;;;11.90;99.90;;;;;;5138317;27;19985;-68
2023/05/28 01:55:00;;;;;;;;;;;11.90;99.90;;;;;;5138579;27;19931;-68
2023/05/28 01:57:26;;;;;;;;;;;11.90;99.90;;;;;;5138381;27;19923;-68
2023/05/28 01:59:51;;;;;;;;;;;11.80;99.90;;;;;;5138871;27;20002;-68
2023/05/28 02:02:17;;;;;;;;;;;11.90;99.90;;;;;;5138248;27;19923;-68
2023/05/28 02:04:42;;;;;;;;;;;11.90;99.90;;;;;;5139012;27;19937;-68
2023/05/28 02:07:08;;;;;;;;;;;11.80;99.90;;;;;;5139620;27;20022;-67
2023/05/28 02:09:34;;;;;;;;;;;11.80;99.90;;;;;;5120890;27;20268;-72
2023/05/28 02:12:02;;;;;;;;;;;11.90;99.90;;;;;;5138428;27;19928;-68
2023/05/28 02:14:29;;;;;;;;;;;11.80;99.90;;;;;;5121431;27;20314;-68
2023/05/28 02:16:54;;;;;;;;;;;11.80;99.90;;;;;;5137878;27;19980;-68
2023/05/28 02:19:20;;;;;;;;;;;11.80;99.90;;;;;;5139530;27;19931;-68
2023/05/28 02:21:46;;;;;;;;;;;11.80;99.90;;;;;;5138087;27;19929;-69
2023/05/28 02:24:11;;;;;;;;;;;11.80;99.90;;;;;;5139155;27;19934;-68
2023/05/28 02:26:37;;;;;;;;;;;11.80;99.90;;;;;;5139005;27;19923;-72
2023/05/28 02:29:03;;;;;;;;;;;11.80;99.90;;;;;;5138956;27;19923;-68
2023/05/28 02:31:28;;;;;;;;;;;11.90;99.90;;;;;;5139340;27;19957;-68
2023/05/28 02:33:54;;;;;;;;;;;11.80;99.90;;;;;;5137679;27;20383;-68
2023/05/28 02:36:20;;;;;;;;;;;11.80;99.90;;;;;;5139229;27;19928;-67
2023/05/28 02:38:46;;;;;;;;;;;11.80;99.90;;;;;;5138650;27;19923;-70
2023/05/28 02:41:11;;;;;;;;;;;11.80;99.90;;;;;;5139384;27;19949;-68
2023/05/28 02:43:37;;;;;;;;;;;11.80;99.90;;;;;;5137747;27;19931;-71
2023/05/28 02:46:03;;;;;;;;;;;11.70;99.90;;;;;;5138748;27;20284;-68
2023/05/28 02:48:28;;;;;;;;;;;11.70;99.90;;;;;;5138300;27;19924;-68
2023/05/28 02:50:54;;;;;;;;;;;11.70;99.90;;;;;;5135699;27;20120;-68
2023/05/28 02:53:20;;;;;;;;;;;11.70;99.90;;;;;;5134816;27;19931;-68
2023/05/28 02:55:46;;;;;;;;;;;11.70;99.90;;;;;;5135281;27;19984;-68
2023/05/28 02:58:12;;;;;;;;;;;11.70;99.90;;;;;;5134641;27;20365;-68
2023/05/28 03:00:38;;;;;;;;;;;11.60;99.90;;;;;;5117438;27;19978;-68
2023/05/28 03:03:04;;;;;;;;;;;11.60;99.90;;;;;;5134060;27;20309;-68
2023/05/28 03:05:31;;;;;;;;;;;11.60;99.90;;;;;;5135622;27;19928;-68
2023/05/28 03:07:59;;;;;;;;;;;11.60;99.90;;;;;;5134861;27;19927;-67
2023/05/28 03:10:25;;;;;;;;;;;11.60;99.90;;;;;;5135527;27;19991;-68
2023/05/28 03:12:50;;;;;;;;;;;11.50;99.90;;;;;;5133848;27;20010;-68
2023/05/28 03:15:16;;;;;;;;;;;11.50;99.90;;;;;;5133834;27;20009;-68
2023/05/28 03:17:41;;;;;;;;;;;11.50;99.90;;;;;;5117039;27;19923;-68
2023/05/28 03:20:11;;;;;;;;;;;11.40;99.90;;;;;;5133776;27;20053;-68
2023/05/28 03:22:37;;;;;;;;;;;11.40;99.90;;;;;;5134123;27;20257;-68
2023/05/28 03:25:04;;;;;;;;;;;11.40;99.90;;;;;;5134261;27;19923;-68
2023/05/28 03:27:30;;;;;;;;;;;11.40;99.90;;;;;;5133528;27;19931;-68
2023/05/28 03:29:55;;;;;;;;;;;11.40;99.90;;;;;;5134262;27;19932;-68
2023/05/28 03:32:21;;;;;;;;;;;11.40;99.90;;;;;;5116921;27;20283;-68
2023/05/28 03:34:47;;;;;;;;;;;11.30;99.90;;;;;;5134573;27;19930;-72
2023/05/28 03:37:12;;;;;;;;;;;11.30;99.90;;;;;;5133867;27;19924;-68
2023/05/28 03:39:38;;;;;;;;;;;11.30;99.90;;;;;;5116733;27;19958;-68
2023/05/28 03:42:04;;;;;;;;;;;11.30;99.90;;;;;;5134124;27;19948;-68
2023/05/28 03:44:30;;;;;;;;;;;11.30;99.90;;;;;;5134577;27;19928;-68
2023/05/28 03:46:55;;;;;;;;;;;11.30;99.90;;;;;;5133286;27;19930;-67
2023/05/28 03:49:21;;;;;;;;;;;11.30;99.90;;;;;;5133895;27;19923;-68
2023/05/28 03:51:47;;;;;;;;;;;11.30;99.90;;;;;;5133199;27;19938;-73
2023/05/28 03:54:12;;;;;;;;;;;11.30;99.90;;;;;;5134475;27;19974;-68
2023/05/28 03:56:38;;;;;;;;;;;11.30;99.90;;;;;;5132911;27;19962;-68
2023/05/28 03:59:04;;;;;;;;;;;11.40;99.90;;;;;;5134068;27;19923;-69
2023/05/28 04:01:30;;;;;;;;;;;11.30;99.90;;;;;;5133088;27;19927;-68
2023/05/28 04:03:55;;;;;;;;;;;11.40;99.90;;;;;;5134040;27;20308;-67
2023/05/28 04:06:22;;;;;;;;;;;11.40;99.90;;;;;;5132809;27;19930;-68
2023/05/28 04:08:48;;;;;;;;;;;11.30;99.90;;;;;;5168066;27;19929;-67
2023/05/28 04:11:13;;;;;;;;;;;11.40;99.90;;;;;;5134216;27;20272;-67
2023/05/28 04:13:40;;;;;;;;;;;11.40;99.90;;;;;;5116286;27;20519;-69
2023/05/28 04:16:06;;;;;;;;;;;11.40;99.90;;;;;;5132542;27;19970;-68
2023/05/28 04:18:32;;;;;;;;;;;11.40;99.90;;;;;;5134203;27;19924;-68
2023/05/28 04:20:57;;;;;;;;;;;11.40;99.90;;;;;;5133869;27;19949;-69
2023/05/28 04:23:23;;;;;;;;;;;11.40;99.90;;;;;;5167630;27;19929;-67
2023/05/28 04:25:50;;;;;;;;;;;11.40;99.90;;;;;;5134261;27;19923;-67
2023/05/28 04:28:15;;;;;;;;;;;11.50;99.90;;;;;;5132205;27;19924;-67
2023/05/28 04:30:41;;;;;;;;;;;11.50;99.90;;;;;;5115825;27;20380;-68
2023/05/28 04:33:07;;;;;;;;;;;11.60;99.90;;;;;;5133588;27;19924;-67
2023/05/28 04:35:32;;;;;;;;;;;11.60;99.90;;;;;;5133781;27;19924;-67
2023/05/28 04:37:59;;;;;;;;;;;11.60;99.90;;;;;;5133069;27;19931;-68
2023/05/28 04:40:25;;;;;;;;;;;11.60;99.90;;;;;;5133789;27;19931;-67
2023/05/28 04:42:53;;;;;;;;;;;11.70;99.90;;;;;;5132593;27;19930;-68
2023/05/28 04:45:19;;;;;;;;;;;11.70;99.90;;;;;;5132535;27;19931;-68
2023/05/28 04:47:45;;;;;;;;;;;11.70;99.90;;;;;;5132531;27;19924;-67
2023/05/28 04:50:11;;;;;;;;;;;11.80;99.90;;;;;;5132194;27;19953;-67
2023/05/28 04:52:37;;;;;;;;;;;11.80;99.90;;;;;;5115483;27;19923;-68
2023/05/28 04:55:06;;;;;;;;;;;11.80;99.90;;;;;;5133374;27;19931;-68
2023/05/28 04:57:32;;;;;;;;;;;11.80;99.90;;;;;;5167300;27;19956;-68
2023/05/28 04:59:58;;;;;;;;;;;11.80;99.90;;;;;;5133137;27;19930;-72
2023/05/28 05:02:24;;;;;;;;;;;11.80;99.90;;;;;;5133512;27;19967;-68
2023/05/28 05:04:49;;;;;;;;;;;11.90;99.90;;;;;;5114930;27;19997;-68
2023/05/28 05:07:15;;;;;;;;;;;11.90;99.90;;;;;;5131250;27;19931;-68
2023/05/28 05:09:40;;;;;;;;;;;12.00;99.90;;;;;;5132130;27;20365;-68
2023/05/28 05:12:07;;;;;;;;;;;12.20;99.90;;;;;;5131594;27;19928;-68
2023/05/28 05:14:33;;;;;;;;;;;12.70;99.90;;;;;;5131408;27;19958;-68
2023/05/28 05:16:58;;;;;;;;;;;13.50;99.90;;;;;;5166320;27;19981;-73
2023/05/28 05:19:25;;;;;;;;;;;14.40;99.90;;;;;;5131698;27;19924;-68
2023/05/28 05:21:51;;;;;;;;;;;15.30;99.90;;;;;;5132763;27;19927;-67
2023/05/28 05:24:16;;;;;;;;;;;16.10;99.90;;;;;;5132840;27;19931;-67
2023/05/28 05:26:42;;;;;;;;;;;16.90;99.90;;;;;;5132871;27;19935;-68
2023/05/28 05:29:08;;;;;;;;;;;17.50;99.90;;;;;;5114430;27;20032;-68
2023/05/28 05:31:33;;;;;;;;;;;18.00;99.90;;;;;;5131448;27;19971;-67
2023/05/28 05:33:59;;;;;;;;;;;18.40;99.90;;;;;;5131899;27;19923;-67
2023/05/28 05:36:24;;;;;;;;;;;18.80;99.90;;;;;;5132922;27;19923;-69
2023/05/28 05:38:50;;;;;;;;;;;19.30;99.90;;;;;;5132932;27;20285;-68
2023/05/28 05:41:16;;;;;;;;;;;19.80;99.90;;;;;;5131652;28;19924;-68
2023/05/28 05:43:41;;;;;;;;;;;20.10;99.90;;;;;;5131177;28;20010;-67
2023/05/28 05:46:07;;;;;;;;;;;20.50;99.90;;;;;;5132671;27;19930;-68
2023/05/28 05:48:33;;;;;;;;;;;20.80;99.90;;;;;;5131381;28;19923;-67
2023/05/28 05:51:00;;;;;;;;;;;21.20;99.90;;;;;;5132825;27;19923;-67
2023/05/28 05:53:26;;;;;;;;;;;21.20;99.90;;;;;;5131301;28;19931;-68
2023/05/28 05:55:52;;;;;;;;;;;21.40;99.90;;;;;;5132672;28;19923;-68
2023/05/28 05:58:18;;;;;;;;;;;21.50;99.90;;;;;;5165881;27;20330;-67
2023/05/28 06:00:44;;;;;;;;;;;21.70;99.90;;;;;;5131635;28;19923;-67
2023/05/28 06:03:09;;;;;;;;;;;21.90;99.90;;;;;;5132452;27;20068;-68
2023/05/28 06:05:35;;;;;;;;;;;22.20;99.90;;;;;;5132679;28;19923;-68
2023/05/28 06:08:02;;;;;;;;;;;22.30;99.90;;;;;;5132678;27;19924;-68
2023/05/28 06:10:29;;;;;;;;;;;22.50;99.90;;;;;;5132231;27;19980;-68
2023/05/28 06:12:55;;;;;;;;;;;22.20;99.90;;;;;;5132202;27;20327;-68
2023/05/28 06:15:21;;;;;;;;;;;;;;;;;;5130850;28;19927;-67
2023/05/28 06:17:47;;;;;;;;;;;;;;;;;;5131586;28;20314;-67
2023/05/28 06:20:13;;;;;;;;;;;;;;;;;;5131251;28;19977;-67
2023/05/28 06:22:39;;;;;;;;;;;;;;;;;;5148966;27;19924;-69
2023/05/28 06:25:06;;;;;;;;;;;22.40;99.90;;;;;;5132615;27;19975;-67
2023/05/28 06:27:32;;;;;;;;;;;23.50;99.90;;;;;;5135401;27;19923;-68
2023/05/28 06:29:57;;;;;;;;;;;23.60;98.50;;;;;;5135289;27;19923;-67
2023/05/28 06:32:23;;;;;;;;;;;23.70;97.40;;;;;;5117999;27;19924;-67
2023/05/28 06:34:49;;;;;;;;;;;23.50;97.00;;;;;;5136345;27;20026;-67
2023/05/28 06:37:14;;;;;;;;;;;23.60;98.20;;;;;;5136185;27;19968;-66
2023/05/28 06:39:40;;;;;;;;;;;23.90;97.60;;;;;;5136507;27;19931;-67
2023/05/28 06:42:06;;;;;;;;;;;23.90;97.20;;;;;;5136037;27;19934;-67
2023/05/28 06:44:32;;;;;;;;;;;24.40;97.90;;;;;;5135466;27;19930;-69
2023/05/28 06:46:58;;;;;;;;;;;24.70;97.10;;;;;;5170037;27;19924;-70
2023/05/28 06:49:24;;;;;;;;;;;25.00;96.10;;;;;;5134981;27;20377;-68
2023/05/28 06:51:50;;;;;;;;;;;25.00;96.30;;;;;;5117893;27;19934;-67
2023/05/28 06:54:15;;;;;;;;;;;25.10;95.10;;;;;;5134706;27;19923;-67
2023/05/28 06:56:41;;;;;;;;;;;25.00;96.00;;;;;;5134838;27;19931;-69
2023/05/28 06:59:06;;;;;;;;;;;25.50;94.80;;;;;;5135794;27;19930;-67
2023/05/28 07:01:32;;;;;;;;;;;25.60;94.80;;;;;;5135628;27;19919;-68
2023/05/28 07:03:57;;;;;;;;;;;25.70;95.50;;;;;;5100715;27;19971;-67
2023/05/28 07:06:23;;;;;;;;;;;25.70;93.90;;;;;;5135475;27;19924;-67
2023/05/28 07:08:49;;;;;;;;;;;25.80;94.60;;;;;;5135820;27;20025;-67
2023/05/28 07:11:15;;;;;;;;;;;25.70;93.40;;;;;;5134066;27;20368;-72
2023/05/28 07:13:40;;;;;;;;;;;25.80;93.50;;;;;;5135687;27;19924;-67
2023/05/28 07:16:06;;;;;;;;;;;26.10;94.20;;;;;;5134496;27;19984;-67
2023/05/28 07:18:32;;;;;;;;;;;26.10;92.90;;;;;;5134341;27;19963;-68
2023/05/28 07:20:58;;;;;;;;;;;26.30;93.20;;;;;;5134680;27;20328;-67
2023/05/28 07:23:24;;;;;;;;;;;26.50;91.00;;;;;;5135014;27;20066;-69
2023/05/28 07:25:49;;;;;;;;;;;26.60;91.60;;;;;;5135410;27;19928;-68
2023/05/28 07:28:15;;;;;;;;;;;27.00;91.80;;;;;;5117193;27;19977;-71
2023/05/28 07:30:41;;;;;;;;;;;27.10;91.40;;;;;;5133838;27;20403;-68
2023/05/28 07:33:06;;;;;;;;;;;27.20;90.30;;;;;;5135161;27;19924;-68
2023/05/28 07:35:32;;;;;;;;;;;27.10;86.80;;;;;;5133539;27;19970;-67
2023/05/28 07:37:58;;;;;;;;;;;27.40;88.40;;;;;;5133768;27;20018;-67
2023/05/28 07:40:23;;;;;;;;;;;27.30;86.90;;;;;;5134808;27;20287;-67
2023/05/28 07:42:51;;;;;;;;;;;27.70;87.80;;;;;;5133945;27;21546;-68
2023/05/28 07:45:16;;;;;;;;;;;28.00;84.70;;;;;;5135043;27;19927;-67
2023/05/28 07:47:42;;;;;;;;;;;27.70;81.80;;;;;;5133710;27;20340;-66
2023/05/28 07:50:09;;;;;;;;;;;27.60;81.70;;;;;;5134619;27;19968;-68
2023/05/28 07:52:34;;;;;;;;;;;27.20;83.20;;;;;;5134414;27;20404;-68
2023/05/28 07:55:00;;;;;;;;;;;27.20;81.70;;;;;;5134759;27;19972;-68
2023/05/28 07:57:25;;;;;;;;;;;27.40;79.90;;;;;;5134123;27;20410;-68
2023/05/28 07:59:51;;;;;;;;;;;27.60;79.40;;;;;;5134752;27;19923;-68
2023/05/28 08:02:17;;;;;;;;;;;27.50;77.90;;;;;;5133605;27;20304;-68
2023/05/28 08:04:43;;;;;;;;;;;27.50;78.80;;;;;;5116286;27;20424;-68
2023/05/28 08:07:12;;;;;;;;;;;27.60;80.60;;;;;;5133832;27;19923;-66
2023/05/28 08:09:40;;;;;;;;;;;27.70;79.10;;;;;;5133882;27;19923;-68
2023/05/28 08:12:06;;;;;;;;;;;28.10;80.60;;;;;;5133531;27;19924;-67
2023/05/28 08:14:32;;;;;;;;;;;27.90;78.50;;;;;;5116003;27;19961;-68
2023/05/28 08:16:57;;;;;;;;;;;28.00;78.90;;;;;;5133210;27;20381;-68
2023/05/28 08:19:23;;;;;;;;;;;28.00;77.90;;;;;;5134292;27;19923;-71
2023/05/28 08:21:48;;;;;;;;;;;27.60;78.10;;;;;;5134075;27;19923;-67
2023/05/28 08:24:14;;;;;;;;;;;27.40;79.30;;;;;;5134749;27;20372;-67
2023/05/28 08:26:40;;;;;;;;;;;27.40;79.20;;;;;;5134006;27;20318;-68
2023/05/28 08:29:06;;;;;;;;;;;27.40;80.20;;;;;;5116071;27;19934;-68
2023/05/28 08:31:31;;;;;;;;;;;27.40;78.90;;;;;;5132820;27;19924;-68
2023/05/28 08:33:57;;;;;;;;;;;27.50;80.10;;;;;;5116083;27;19924;-68
2023/05/28 08:36:23;;;;;;;;;;;27.50;79.30;;;;;;5134144;27;19931;-67
2023/05/28 08:38:48;;;;;;;;;;;27.70;79.30;;;;;;5132558;27;19924;-66
2023/05/28 08:41:14;;;;;;;;;;;27.80;79.20;;;;;;5167452;27;20412;-67
2023/05/28 08:43:40;;;;;;;;;;;27.70;78.30;;;;;;5131987;27;20372;-68
2023/05/28 08:46:06;;;;;;;;;;;27.80;79.30;;;;;;5132778;27;20001;-68
2023/05/28 08:48:35;;;;;;;;;;;27.70;79.40;;;;;;5132904;27;19930;-68
2023/05/28 08:51:00;;;;;;;;;;;27.70;79.20;;;;;;5132239;27;20075;-67
2023/05/28 08:53:30;;;;;;;;;;;27.70;79.80;;;;;;5133866;27;20392;-68
2023/05/28 08:55:56;;;;;;;;;;;27.70;78.80;;;;;;5133581;27;20441;-68
2023/05/28 08:58:22;;;;;;;;;;;27.40;79.40;;;;;;5132675;27;19984;-67
2023/05/28 09:00:48;;;;;;;;;;;27.30;79.80;;;;;;5133037;27;19930;-67
2023/05/28 09:03:13;;;;;;;;;;;27.00;80.80;;;;;;5133464;27;19924;-66
2023/05/28 09:05:39;;;;;;;;;;;27.30;81.30;;;;;;5132722;27;19930;-67
2023/05/28 09:08:09;;;;;;;;;;;27.20;79.90;;;;;;5132443;27;19923;-67
2023/05/28 09:10:36;;;;;;;;;;;27.30;79.30;;;;;;5131806;27;20372;-67
2023/05/28 09:13:02;;;;;;;;;;;27.50;79.30;;;;;;5132457;27;19923;-66
2023/05/28 09:15:28;;;;;;;;;;;27.60;79.50;;;;;;5131952;27;19923;-67
2023/05/28 09:17:54;;;;;;;;;;;27.70;79.00;;;;;;5131739;27;20380;-68
2023/05/28 09:20:20;;;;;;;;;;;27.80;79.40;;;;;;5133351;27;20010;-69
2023/05/28 09:22:56;;;;;;;;;;;28.10;79.10;;;;;;5131545;27;19992;-67
2023/05/28 09:25:24;;;;;;;;;;;28.20;79.30;;;;;;5133281;27;19923;-67
2023/05/28 09:27:49;;;;;;;;;;;28.00;79.70;;;;;;5131917;27;19923;-67
2023/05/28 09:30:15;;;;;;;;;;;28.00;78.90;;;;;;5132239;27;19948;-66
2023/05/28 09:32:41;;;;;;;;;;;28.00;79.80;;;;;;5133470;27;19930;-67
2023/05/28 09:35:07;;;;;;;;;;;27.80;79.40;;;;;;5131701;27;19924;-67
2023/05/28 09:37:34;;;;;;;;;;;27.50;78.30;;;;;;5132281;27;19923;-70
2023/05/28 09:40:03;;;;;;;;;;;27.30;79.10;;;;;;5132316;28;19963;-65
2023/05/28 09:42:50;;;;;;;;;;;27.30;79.10;;;;;;5133197;27;20050;-65
2023/05/28 09:45:21;;;;;;;;;;;27.30;76.70;;;;;;5133174;27;20358;-68
2023/05/28 09:47:47;;;;;;;;;;;27.30;78.40;;;;;;5132852;27;19930;-67
2023/05/28 09:50:13;;;;;;;;;;;27.20;77.90;;;;;;5133272;28;19975;-66
2023/05/28 09:52:41;;;;;;;;;;;27.00;76.60;;;;;;5131566;28;19972;-66
2023/05/28 09:55:07;;;;;;;;;;;26.80;74.80;;;;;;5132053;28;19967;-66
2023/05/28 09:57:33;;;;;;;;;;;26.60;75.20;;;;;;5132920;27;19955;-66
2023/05/28 10:00:01;;;;;;;;;;;26.40;75.10;;;;;;5132971;27;20010;-66
2023/05/28 10:02:32;;;;;;;;;;;26.10;75.60;;;;;;5137111;27;19923;-68
2023/05/28 10:05:02;;;;;;;;;;;25.80;75.60;;;;;;5135810;27;20388;-67
2023/05/28 10:07:28;;;;;;;;;;;25.70;74.50;;;;;;5136932;27;19923;-67
2023/05/28 10:09:54;;;;;;;;;;;25.40;74.70;;;;;;5135469;27;20284;-68
2023/05/28 10:12:22;;;;;;;;;;;25.10;77.30;;;;;;5136825;27;20110;-68
2023/05/28 10:14:48;;;;;;;;;;;24.90;76.50;;;;;;5136831;27;20488;-67
2023/05/28 10:17:14;;;;;;;;;;;24.80;75.60;;;;;;5135711;27;19973;-67
2023/05/28 10:19:40;;;;;;;;;;;24.70;76.00;;;;;;5135553;27;20330;-68
2023/05/28 10:22:06;;;;;;;;;;;24.60;72.10;;;;;;5170201;27;19968;-67
2023/05/28 10:24:32;;;;;;;;;;;24.60;73.40;;;;;;5135024;27;19924;-67
2023/05/28 10:26:58;;;;;;;;;;;24.40;75.00;;;;;;5134960;27;19923;-68
2023/05/28 10:29:24;;;;;;;;;;;24.40;73.60;;;;;;5135296;27;19924;-67
2023/05/28 10:32:02;;;;;;;;;;;24.30;74.30;;;;;;5118365;27;19942;-68
2023/05/28 10:34:34;;;;;;;;;;;24.30;73.40;;;;;;5170406;27;19923;-68
2023/05/28 10:37:00;;;;;;;;;;;24.20;74.10;;;;;;5136268;27;20284;-67
2023/05/28 10:39:26;;;;;;;;;;;24.30;73.20;;;;;;5135558;27;19930;-67
2023/05/28 10:41:51;;;;;;;;;;;24.00;74.60;;;;;;5134926;27;19923;-67
2023/05/28 10:44:18;;;;;;;;;;;23.70;75.40;;;;;;5136557;27;19924;-68
2023/05/28 10:46:44;;;;;;;;;;;23.70;76.30;;;;;;5117608;27;19923;-66
2023/05/28 10:49:14;;;;;;;;;;;23.60;77.50;;;;;;5134893;27;20288;-67
2023/05/28 10:51:45;;;;;;;;;;;23.70;76.20;;;;;;5136570;27;19968;-67
2023/05/28 10:54:16;;;;;;;;;;;23.80;77.00;;;;;;5135833;27;20396;-67
2023/05/28 10:57:00;;;;;;;;;;;23.80;78.20;;;;;;5136271;27;19923;-67
2023/05/28 10:59:45;;;;;;;;;;;23.80;80.00;;;;;;5169470;27;19996;-67
2023/05/28 11:02:11;;;;;;;;;;;23.50;80.50;;;;;;5136156;27;19927;-67
2023/05/28 11:04:37;;;;;;;;;;;23.50;81.30;;;;;;5135023;27;20284;-68
2023/05/28 11:07:03;;;;;;;;;;;23.50;80.80;;;;;;5134435;27;20064;-67
2023/05/28 11:09:28;;;;;;;;;;;23.40;81.80;;;;;;5134485;27;20316;-67
2023/05/28 11:11:58;;;;;;;;;;;23.30;81.80;;;;;;5133519;27;19931;-67
2023/05/28 11:14:24;;;;;;;;;;;23.20;81.90;;;;;;5135673;27;19927;-67
2023/05/28 11:16:50;;;;;;;;;;;23.00;83.10;;;;;;5135299;27;19934;-68
2023/05/28 11:19:15;;;;;;;;;;;23.10;84.00;;;;;;5135341;27;19984;-67
2023/05/28 11:21:51;;;;;;;;;;;23.10;84.70;;;;;;5117173;27;20283;-67
2023/05/28 11:24:16;;;;;;;;;;;23.20;84.20;;;;;;5134547;27;19927;-67
2023/05/28 11:26:42;;;;;;;;;;;23.00;86.90;;;;;;5134348;27;19919;-67
2023/05/28 11:29:08;;;;;;;;;;;23.10;86.50;;;;;;5135454;27;20184;-67
2023/05/28 11:31:38;;;;;;;;;;;23.00;86.80;;;;;;5135704;27;19920;-67
2023/05/28 11:34:04;;;;;;;;;;;22.90;88.20;;;;;;5117273;27;19943;-68
2023/05/28 11:36:29;;;;;;;;;;;22.90;87.40;;;;;;5134411;27;20364;-67
2023/05/28 11:39:02;;;;;;;;;;;22.80;87.20;;;;;;5134098;27;20032;-67
2023/05/28 11:41:28;;;;;;;;;;;22.90;87.90;;;;;;5135542;27;20272;-67
2023/05/28 11:43:54;;;;;;;;;;;22.90;88.20;;;;;;5134880;27;19927;-68
2023/05/28 11:46:21;;;;;;;;;;;22.80;88.50;;;;;;5135053;27;19923;-67
2023/05/28 11:48:47;;;;;;;;;;;22.70;89.00;;;;;;5134428;27;20000;-67
2023/05/28 11:51:22;;;;;;;;;;;22.70;90.00;;;;;;5150789;27;19919;-69
2023/05/28 11:53:51;;;;;;;;;;;22.80;89.40;;;;;;5167600;27;19923;-67
2023/05/28 11:56:17;;;;;;;;;;;22.60;89.80;;;;;;5134735;27;19923;-66
2023/05/28 11:58:48;;;;;;;;;;;22.50;89.80;;;;;;5134935;27;19923;-66
2023/05/28 12:01:15;;;;;;;;;;;22.50;90.20;;;;;;5134400;27;19923;-66
2023/05/28 12:03:40;;;;;;;;;;;22.40;90.40;;;;;;5134623;27;19934;-66
2023/05/28 12:06:06;;;;;;;;;;;22.30;90.60;;;;;;5134231;27;19924;-66
2023/05/28 12:08:31;;;;;;;;;;;22.20;90.50;;;;;;5133887;27;20395;-66
2023/05/28 12:11:03;;;;;;;;;;;22.10;91.20;;;;;;5134134;27;20038;-69
2023/05/28 12:13:33;;;;;;;;;;;22.20;91.10;;;;;;5134772;27;19923;-68
2023/05/28 12:16:05;;;;;;;;;;;22.20;91.80;;;;;;5134298;27;19924;-67
2023/05/28 12:18:31;;;;;;;;;;;22.10;91.50;;;;;;5134595;27;19923;-67
2023/05/28 12:20:58;;;;;;;;;;;22.10;91.50;;;;;;5133284;27;19937;-68
2023/05/28 12:23:23;;;;;;;;;;;22.20;92.10;;;;;;5167940;27;19924;-67
2023/05/28 12:25:50;;;;;;;;;;;22.20;91.60;;;;;;5132997;27;20356;-67
2023/05/28 12:28:16;;;;;;;;;;;21.90;91.50;;;;;;5133696;27;19923;-68
2023/05/28 12:30:43;;;;;;;;;;;21.80;92.10;;;;;;5133362;27;19923;-67
2023/05/28 12:33:09;;;;;;;;;;;21.80;92.20;;;;;;5132783;27;19923;-67
2023/05/28 12:35:35;;;;;;;;;;;21.80;92.10;;;;;;5133062;27;19923;-67
2023/05/28 12:38:00;;;;;;;;;;;21.70;92.00;;;;;;5133692;27;19949;-67
2023/05/28 12:40:26;;;;;;;;;;;21.80;92.10;;;;;;5132466;27;20341;-67
2023/05/28 12:42:52;;;;;;;;;;;21.60;91.90;;;;;;5133901;27;19924;-67
2023/05/28 12:45:17;;;;;;;;;;;21.60;92.20;;;;;;5133276;27;20304;-67
2023/05/28 12:47:43;;;;;;;;;;;21.60;91.90;;;;;;5115504;27;19924;-68
2023/05/28 12:50:09;;;;;;;;;;;21.50;91.70;;;;;;5133340;27;19923;-67
2023/05/28 12:52:34;;;;;;;;;;;21.40;92.00;;;;;;5167270;27;19930;-67
2023/05/28 12:55:00;;;;;;;;;;;21.40;92.10;;;;;;5133818;27;19923;-69
2023/05/28 12:57:26;;;;;;;;;;;;;;;;;;5133578;27;20034;-67
2023/05/28 12:59:52;;;;;;;;;;;21.30;92.00;;;;;;5132591;27;19923;-66
2023/05/28 13:02:18;;;;;;;;;;;21.00;92.30;;;;;;5133311;27;19923;-68
2023/05/28 13:04:43;;;;;;;;;;;20.90;92.00;;;;;;5132393;27;19930;-68
2023/05/28 13:07:09;;;;;;;;;;;20.80;92.30;;;;;;5133235;27;19923;-67
2023/05/28 13:09:35;;;;;;;;;;;20.80;92.80;;;;;;5132540;27;20030;-66
2023/05/28 13:12:01;;;;;;;;;;;20.80;92.90;;;;;;5132263;27;20002;-67
2023/05/28 13:14:28;;;;;;;;;;;20.80;92.30;;;;;;5133023;27;19986;-67
2023/05/28 13:16:57;;;;;;;;;;;20.80;92.50;;;;;;5132145;27;19924;-67
2023/05/28 13:19:23;;;;;;;;;;;20.60;92.80;;;;;;5131587;27;19973;-68
2023/05/28 13:21:49;;;;;;;;;;;20.60;92.80;;;;;;5133451;27;19924;-68
2023/05/28 13:24:14;;;;;;;;;;;20.50;93.10;;;;;;5132825;27;20369;-67
2023/05/28 13:26:40;;;;;;;;;;;20.50;93.50;;;;;;5132151;27;20113;-68
2023/05/28 13:29:06;;;;;;;;;;;20.50;93.80;;;;;;5132446;27;19927;-67
2023/05/28 13:31:32;;;;;;;;;;;20.60;93.60;;;;;;5131517;27;20356;-67
2023/05/28 13:33:58;;;;;;;;;;;20.50;93.00;;;;;;5131835;27;19923;-66
2023/05/28 13:36:23;;;;;;;;;;;20.40;92.00;;;;;;5148012;27;19923;-68
2023/05/28 13:38:49;;;;;;;;;;;20.40;92.20;;;;;;5132332;27;20299;-68
2023/05/28 13:41:15;;;;;;;;;;;20.40;92.20;;;;;;5132327;27;20296;-67
2023/05/28 13:43:41;;;;;;;;;;;20.60;92.30;;;;;;5132853;27;19997;-67
2023/05/28 13:46:08;;;;;;;;;;;20.70;92.20;;;;;;5132883;28;20022;-69
2023/05/28 13:48:33;;;;;;;;;;;20.70;92.00;;;;;;5133034;27;19976;-67
2023/05/28 13:50:59;;;;;;;;;;;20.70;92.00;;;;;;5098092;28;19927;-67
2023/05/28 13:53:29;;;;;;;;;;;20.80;92.50;;;;;;5131406;28;20284;-66
2023/05/28 13:55:55;;;;;;;;;;;20.70;92.70;;;;;;5132828;27;19923;-67
2023/05/28 13:58:22;;;;;;;;;;;20.70;92.70;;;;;;5132733;27;19923;-67
2023/05/28 14:00:47;;;;;;;;;;;20.60;93.10;;;;;;5132918;27;20030;-68
2023/05/28 14:03:13;;;;;;;;;;;20.50;93.00;;;;;;5131317;28;19966;-67
2023/05/28 14:05:39;;;;;;;;;;;20.50;93.10;;;;;;5132937;27;20342;-67
2023/05/28 14:08:05;;;;;;;;;;;20.40;93.30;;;;;;5131444;28;19924;-67
2023/05/28 14:10:31;;;;;;;;;;;20.40;93.30;;;;;;5132310;27;19988;-67
2023/05/28 14:12:57;;;;;;;;;;;20.50;93.60;;;;;;5113900;28;19923;-67